sensor_id;sensor_type;location;lat;lon;timestamp;pressure;altitude;pressure_sealevel;temperature;humidity
54453;BME280;40363;52.270;10.546;2023-12-04T00:02:26;78619.22;;;-147.06;100.00
54453;BME280;40363;52.270;10.546;2023-12-04T00:04:52;78648.00;;;-147.06;100.00
54453;BME280;40363;52.270;10.546;2023-12-04T00:07:19;78678.88;;;-147.06;100.00
54453;BME280;40363;52.270;10.546;2023-12-04T00:09:45;78682.97;;;-147.06;100.00
54453;BME280;40363;52.270;10.546;2023-12-04T00:12:12;78672.69;;;-147.06;100.00
54453;BME280;40363;52.270;10.546;2023-12-04T00:14:39;78691.19;;;-147.06;100.00
54453;BME280;40363;52.270;10.546;2023-12-04T00:17:06;78697.38;;;-147.06;100.00
54453;BME280;40363;52.270;10.546;2023-12-04T00:19:33;78687.09;;;-147.06;100.00
54453;BME280;40363;52.270;10.546;2023-12-04T00:22:00;78650.06;;;-147.06;100.00
54453;BME280;40363;52.270;10.546;2023-12-04T00:24:26;78685.03;;;-147.06;100.00
54453;BME280;40363;52.270;10.546;2023-12-04T00:26:53;78693.25;;;-147.06;100.00
54453;BME280;40363;52.270;10.546;2023-12-04T00:29:19;78674.75;;;-147.06;100.00
54453;BME280;40363;52.270;10.546;2023-12-04T00:31:46;78689.16;;;-147.06;100.00
54453;BME280;40363;52.270;10.546;2023-12-04T00:34:14;78685.03;;;-147.06;100.00
54453;BME280;40363;52.270;10.546;2023-12-04T00:36:40;78664.47;;;-147.06;100.00
54453;BME280;40363;52.270;10.546;2023-12-04T00:39:07;78652.13;;;-147.06;100.00
54453;BME280;40363;52.270;10.546;2023-12-04T00:41:33;78668.59;;;-147.06;100.00
54453;BME280;40363;52.270;10.546;2023-12-04T00:44:00;78658.31;;;-147.06;100.00
54453;BME280;40363;52.270;10.546;2023-12-04T00:46:27;78648.00;;;-147.06;100.00
54453;BME280;40363;52.270;10.546;2023-12-04T00:48:53;78654.19;;;-147.06;100.00
54453;BME280;40363;52.270;10.546;2023-12-04T00:51:21;78650.06;;;-147.06;100.00
54453;BME280;40363;52.270;10.546;2023-12-04T00:53:48;78664.47;;;-147.06;100.00
54453;BME280;40363;52.270;10.546;2023-12-04T00:56:14;78658.31;;;-147.06;100.00
54453;BME280;40363;52.270;10.546;2023-12-04T00:58:41;78654.19;;;-147.06;100.00
54453;BME280;40363;52.270;10.546;2023-12-04T01:01:07;78625.41;;;-147.06;100.00
54453;BME280;40363;52.270;10.546;2023-12-04T01:03:34;78617.16;;;-147.06;100.00
54453;BME280;40363;52.270;10.546;2023-12-04T01:06:01;78619.22;;;-147.06;100.00
54453;BME280;40363;52.270;10.546;2023-12-04T01:08:28;78615.13;;;-147.06;100.00
54453;BME280;40363;52.270;10.546;2023-12-04T01:10:55;78588.38;;;-147.06;100.00
54453;BME280;40363;52.270;10.546;2023-12-04T01:13:22;78629.50;;;-147.06;100.00
54453;BME280;40363;52.270;10.546;2023-12-04T01:15:48;78596.59;;;-147.06;100.00
54453;BME280;40363;52.270;10.546;2023-12-04T01:18:16;78598.66;;;-147.06;100.00
54453;BME280;40363;52.270;10.546;2023-12-04T01:20:43;78606.88;;;-147.06;100.00
54453;BME280;40363;52.270;10.546;2023-12-04T01:23:10;78584.25;;;-147.06;100.00
54453;BME280;40363;52.270;10.546;2023-12-04T01:25:38;78580.16;;;-147.06;100.00
54453;BME280;40363;52.270;10.546;2023-12-04T01:28:04;78561.66;;;-147.06;100.00
54453;BME280;40363;52.270;10.546;2023-12-04T01:30:31;78551.38;;;-147.06;100.00
54453;BME280;40363;52.270;10.546;2023-12-04T01:32:57;78567.81;;;-147.06;100.00
54453;BME280;40363;52.270;10.546;2023-12-04T01:35:24;78592.50;;;-147.06;100.00
54453;BME280;40363;52.270;10.546;2023-12-04T01:37:51;78590.44;;;-147.06;100.00
54453;BME280;40363;52.270;10.546;2023-12-04T01:40:18;78586.31;;;-147.06;100.00
54453;BME280;40363;52.270;10.546;2023-12-04T01:42:45;78584.25;;;-147.06;100.00
54453;BME280;40363;52.270;10.546;2023-12-04T01:45:12;78586.31;;;-147.06;100.00
54453;BME280;40363;52.270;10.546;2023-12-04T01:47:39;78576.03;;;-147.06;100.00
54453;BME280;40363;52.270;10.546;2023-12-04T01:50:07;78578.09;;;-147.06;100.00
54453;BME280;40363;52.270;10.546;2023-12-04T01:52:34;78615.13;;;-147.06;100.00
54453;BME280;40363;52.270;10.546;2023-12-04T01:55:02;78623.34;;;-147.06;100.00
54453;BME280;40363;52.270;10.546;2023-12-04T01:57:29;78586.31;;;-147.06;100.00
54453;BME280;40363;52.270;10.546;2023-12-04T01:59:57;78563.69;;;-147.06;100.00
54453;BME280;40363;52.270;10.546;2023-12-04T02:02:24;78549.31;;;-147.06;100.00
54453;BME280;40363;52.270;10.546;2023-12-04T02:04:51;78549.31;;;-147.06;100.00
54453;BME280;40363;52.270;10.546;2023-12-04T02:07:20;78549.31;;;-147.06;100.00
54453;BME280;40363;52.270;10.546;2023-12-04T02:09:46;78553.41;;;-147.06;100.00
54453;BME280;40363;52.270;10.546;2023-12-04T02:12:13;78549.31;;;-147.06;100.00
54453;BME280;40363;52.270;10.546;2023-12-04T02:14:40;78545.19;;;-147.06;100.00
54453;BME280;40363;52.270;10.546;2023-12-04T02:17:08;78553.41;;;-147.06;100.00
54453;BME280;40363;52.270;10.546;2023-12-04T02:19:35;78528.75;;;-147.06;100.00
54453;BME280;40363;52.270;10.546;2023-12-04T02:22:02;78524.63;;;-147.06;100.00
54453;BME280;40363;52.270;10.546;2023-12-04T02:24:30;78522.56;;;-147.06;100.00
54453;BME280;40363;52.270;10.546;2023-12-04T02:27:04;78541.09;;;-147.06;100.00
54453;BME280;40363;52.270;10.546;2023-12-04T02:29:39;78536.97;;;-147.06;100.00
54453;BME280;40363;52.270;10.546;2023-12-04T02:32:11;78512.28;;;-147.06;100.00
54453;BME280;40363;52.270;10.546;2023-12-04T02:34:41;78506.13;;;-147.06;100.00
54453;BME280;40363;52.270;10.546;2023-12-04T02:37:11;78510.22;;;-147.06;100.00
54453;BME280;40363;52.270;10.546;2023-12-04T02:39:39;78520.50;;;-147.06;100.00
54453;BME280;40363;52.270;10.546;2023-12-04T02:42:06;78508.19;;;-147.06;100.00
54453;BME280;40363;52.270;10.546;2023-12-04T02:44:33;78483.50;;;-147.06;100.00
54453;BME280;40363;52.270;10.546;2023-12-04T02:46:59;78475.28;;;-147.06;100.00
54453;BME280;40363;52.270;10.546;2023-12-04T02:49:26;78485.56;;;-147.06;100.00
54453;BME280;40363;52.270;10.546;2023-12-04T02:51:53;78467.06;;;-147.06;100.00
54453;BME280;40363;52.270;10.546;2023-12-04T02:54:19;78440.31;;;-147.06;100.00
54453;BME280;40363;52.270;10.546;2023-12-04T02:56:47;78458.81;;;-147.06;100.00
54453;BME280;40363;52.270;10.546;2023-12-04T02:59:14;78477.34;;;-147.06;100.00
54453;BME280;40363;52.270;10.546;2023-12-04T03:01:40;78487.63;;;-147.06;100.00
54453;BME280;40363;52.270;10.546;2023-12-04T03:04:07;78462.94;;;-147.06;100.00
54453;BME280;40363;52.270;10.546;2023-12-04T03:06:33;78442.38;;;-147.06;100.00
54453;BME280;40363;52.270;10.546;2023-12-04T03:09:00;78467.06;;;-147.06;100.00
54453;BME280;40363;52.270;10.546;2023-12-04T03:11:27;78458.81;;;-147.06;100.00
54453;BME280;40363;52.270;10.546;2023-12-04T03:13:55;78438.25;;;-147.06;100.00
54453;BME280;40363;52.270;10.546;2023-12-04T03:16:22;78432.09;;;-147.06;100.00
54453;BME280;40363;52.270;10.546;2023-12-04T03:18:48;78415.63;;;-147.06;100.00
54453;BME280;40363;52.270;10.546;2023-12-04T03:21:15;78413.59;;;-147.06;100.00
54453;BME280;40363;52.270;10.546;2023-12-04T03:23:41;78413.59;;;-147.06;100.00
54453;BME280;40363;52.270;10.546;2023-12-04T03:26:09;78427.97;;;-147.06;100.00
54453;BME280;40363;52.270;10.546;2023-12-04T03:28:35;78419.75;;;-147.06;100.00
54453;BME280;40363;52.270;10.546;2023-12-04T03:31:04;78423.88;;;-147.06;100.00
54453;BME280;40363;52.270;10.546;2023-12-04T03:33:31;78438.25;;;-147.06;100.00
54453;BME280;40363;52.270;10.546;2023-12-04T03:35:58;78427.97;;;-147.06;100.00
54453;BME280;40363;52.270;10.546;2023-12-04T03:38:25;78438.25;;;-147.06;100.00
54453;BME280;40363;52.270;10.546;2023-12-04T03:40:52;78409.47;;;-147.06;100.00
54453;BME280;40363;52.270;10.546;2023-12-04T03:43:18;78419.75;;;-147.06;100.00
54453;BME280;40363;52.270;10.546;2023-12-04T03:45:45;78401.25;;;-147.06;100.00
54453;BME280;40363;52.270;10.546;2023-12-04T03:48:13;78403.31;;;-147.06;100.00
54453;BME280;40363;52.270;10.546;2023-12-04T03:50:39;78411.53;;;-147.06;100.00
54453;BME280;40363;52.270;10.546;2023-12-04T03:53:06;78397.13;;;-147.06;100.00
54453;BME280;40363;52.270;10.546;2023-12-04T03:55:33;78401.25;;;-147.06;100.00
54453;BME280;40363;52.270;10.546;2023-12-04T03:58:00;78393.03;;;-147.06;100.00
54453;BME280;40363;52.270;10.546;2023-12-04T04:00:26;78374.50;;;-147.06;100.00
54453;BME280;40363;52.270;10.546;2023-12-04T04:02:53;78368.34;;;-147.06;100.00
54453;BME280;40363;52.270;10.546;2023-12-04T04:05:21;78378.63;;;-147.06;100.00
54453;BME280;40363;52.270;10.546;2023-12-04T04:07:47;78368.34;;;-147.06;100.00
54453;BME280;40363;52.270;10.546;2023-12-04T04:10:14;78353.94;;;-147.06;100.00
54453;BME280;40363;52.270;10.546;2023-12-04T04:12:41;78372.47;;;-147.06;100.00
54453;BME280;40363;52.270;10.546;2023-12-04T04:15:08;78337.50;;;-147.06;100.00
54453;BME280;40363;52.270;10.546;2023-12-04T04:17:34;78343.66;;;-147.06;100.00
54453;BME280;40363;52.270;10.546;2023-12-04T04:20:01;78327.22;;;-147.06;100.00
54453;BME280;40363;52.270;10.546;2023-12-04T04:22:29;78333.38;;;-147.06;100.00
54453;BME280;40363;52.270;10.546;2023-12-04T04:24:59;78323.09;;;-147.06;100.00
54453;BME280;40363;52.270;10.546;2023-12-04T04:27:26;78323.09;;;-147.06;100.00
54453;BME280;40363;52.270;10.546;2023-12-04T04:29:53;78304.59;;;-147.06;100.00
54453;BME280;40363;52.270;10.546;2023-12-04T04:32:19;78292.25;;;-147.06;100.00
54453;BME280;40363;52.270;10.546;2023-12-04T04:34:46;78288.16;;;-147.06;100.00
54453;BME280;40363;52.270;10.546;2023-12-04T04:37:12;78273.75;;;-147.06;100.00
54453;BME280;40363;52.270;10.546;2023-12-04T04:39:40;78277.88;;;-147.06;100.00
54453;BME280;40363;52.270;10.546;2023-12-04T04:42:07;78265.53;;;-147.06;100.00
54453;BME280;40363;52.270;10.546;2023-12-04T04:44:34;78265.53;;;-147.06;100.00
54453;BME280;40363;52.270;10.546;2023-12-04T04:47:00;78261.41;;;-147.06;100.00
54453;BME280;40363;52.270;10.546;2023-12-04T04:49:27;78247.03;;;-147.06;100.00
54453;BME280;40363;52.270;10.546;2023-12-04T04:51:54;78236.75;;;-147.06;100.00
54453;BME280;40363;52.270;10.546;2023-12-04T04:54:20;78222.34;;;-147.06;100.00
54453;BME280;40363;52.270;10.546;2023-12-04T04:56:48;78220.28;;;-147.06;100.00
54453;BME280;40363;52.270;10.546;2023-12-04T04:59:15;78228.53;;;-147.06;100.00
54453;BME280;40363;52.270;10.546;2023-12-04T05:01:41;78210.00;;;-147.06;100.00
54453;BME280;40363;52.270;10.546;2023-12-04T05:04:08;78214.13;;;-147.06;100.00
54453;BME280;40363;52.270;10.546;2023-12-04T05:06:34;78226.47;;;-147.06;100.00
54453;BME280;40363;52.270;10.546;2023-12-04T05:09:01;78203.84;;;-147.06;100.00
54453;BME280;40363;52.270;10.546;2023-12-04T05:11:28;78205.91;;;-147.06;99.55
54453;BME280;40363;52.270;10.546;2023-12-04T05:13:56;78195.63;;;-147.06;99.97
54453;BME280;40363;52.270;10.546;2023-12-04T05:16:22;78210.00;;;-147.06;99.18
54453;BME280;40363;52.270;10.546;2023-12-04T05:18:49;78195.63;;;-147.06;98.55
54453;BME280;40363;52.270;10.546;2023-12-04T05:21:16;78187.41;;;-147.06;99.75
54453;BME280;40363;52.270;10.546;2023-12-04T05:23:43;78193.56;;;-147.06;98.46
54453;BME280;40363;52.270;10.546;2023-12-04T05:26:09;78166.81;;;-147.06;97.83
54453;BME280;40363;52.270;10.546;2023-12-04T05:28:36;78175.06;;;-147.06;98.05
54453;BME280;40363;52.270;10.546;2023-12-04T05:31:04;78170.94;;;-147.06;97.02
54453;BME280;40363;52.270;10.546;2023-12-04T05:33:31;78173.00;;;-147.06;94.88
54453;BME280;40363;52.270;10.546;2023-12-04T05:35:59;78150.38;;;-147.06;94.84
54453;BME280;40363;52.270;10.546;2023-12-04T05:38:26;78138.03;;;-147.06;94.12
54453;BME280;40363;52.270;10.546;2023-12-04T05:40:53;78133.94;;;-147.06;94.32
54453;BME280;40363;52.270;10.546;2023-12-04T05:43:20;78146.28;;;-147.06;94.12
54453;BME280;40363;52.270;10.546;2023-12-04T05:45:46;78154.50;;;-147.06;94.87
54453;BME280;40363;52.270;10.546;2023-12-04T05:48:14;78144.22;;;-147.06;93.76
54453;BME280;40363;52.270;10.546;2023-12-04T05:50:41;78148.31;;;-147.06;93.59
54453;BME280;40363;52.270;10.546;2023-12-04T05:53:08;78142.16;;;-147.06;95.33
54453;BME280;40363;52.270;10.546;2023-12-04T05:55:35;78146.28;;;-147.06;94.05
54453;BME280;40363;52.270;10.546;2023-12-04T05:58:01;78148.31;;;-147.06;94.25
54453;BME280;40363;52.270;10.546;2023-12-04T06:00:28;78150.38;;;-147.06;94.36
54453;BME280;40363;52.270;10.546;2023-12-04T06:02:55;78127.75;;;-147.06;93.56
54453;BME280;40363;52.270;10.546;2023-12-04T06:05:23;78148.31;;;-147.06;93.99
54453;BME280;40363;52.270;10.546;2023-12-04T06:07:49;78152.44;;;-147.06;95.84
54453;BME280;40363;52.270;10.546;2023-12-04T06:10:16;78152.44;;;-147.06;95.11
54453;BME280;40363;52.270;10.546;2023-12-04T06:12:43;78162.72;;;-147.06;94.57
54453;BME280;40363;52.270;10.546;2023-12-04T06:15:10;78162.72;;;-147.06;95.29
54453;BME280;40363;52.270;10.546;2023-12-04T06:17:37;78170.94;;;-147.06;94.57
54453;BME280;40363;52.270;10.546;2023-12-04T06:20:05;78152.44;;;-147.06;95.57
54453;BME280;40363;52.270;10.546;2023-12-04T06:22:34;78142.16;;;-147.06;96.40
54453;BME280;40363;52.270;10.546;2023-12-04T06:25:02;78150.38;;;-147.06;93.91
54453;BME280;40363;52.270;10.546;2023-12-04T06:27:29;78148.31;;;-147.06;93.61
54453;BME280;40363;52.270;10.546;2023-12-04T06:29:56;78142.16;;;-147.06;94.24
54453;BME280;40363;52.270;10.546;2023-12-04T06:32:24;78117.47;;;-147.06;95.69
54453;BME280;40363;52.270;10.546;2023-12-04T06:34:51;78135.97;;;-147.06;94.52
54453;BME280;40363;52.270;10.546;2023-12-04T06:37:19;78125.72;;;-147.06;94.45
54453;BME280;40363;52.270;10.546;2023-12-04T06:39:48;78138.03;;;-147.06;94.12
54453;BME280;40363;52.270;10.546;2023-12-04T06:42:16;78129.81;;;-147.06;94.21
54453;BME280;40363;52.270;10.546;2023-12-04T06:44:43;78131.88;;;-147.06;95.02
54453;BME280;40363;52.270;10.546;2023-12-04T06:47:12;78135.97;;;-147.06;96.53
54453;BME280;40363;52.270;10.546;2023-12-04T06:49:39;78133.94;;;-147.06;95.69
54453;BME280;40363;52.270;10.546;2023-12-04T06:52:05;78138.03;;;-147.06;94.67
54453;BME280;40363;52.270;10.546;2023-12-04T06:54:32;78140.09;;;-147.06;95.20
54453;BME280;40363;52.270;10.546;2023-12-04T06:57:00;78121.59;;;-147.06;95.01
54453;BME280;40363;52.270;10.546;2023-12-04T06:59:26;78140.09;;;-147.06;94.24
54453;BME280;40363;52.270;10.546;2023-12-04T07:01:53;78140.09;;;-147.06;94.69
54453;BME280;40363;52.270;10.546;2023-12-04T07:04:20;78115.44;;;-147.06;94.77
54453;BME280;40363;52.270;10.546;2023-12-04T07:06:47;78135.97;;;-147.06;94.32
54453;BME280;40363;52.270;10.546;2023-12-04T07:09:14;78133.94;;;-147.06;94.64
54453;BME280;40363;52.270;10.546;2023-12-04T07:11:42;78133.94;;;-147.06;94.90
54453;BME280;40363;52.270;10.546;2023-12-04T07:14:10;78117.47;;;-147.06;95.72
54453;BME280;40363;52.270;10.546;2023-12-04T07:16:40;78129.81;;;-147.06;95.37
54453;BME280;40363;52.270;10.546;2023-12-04T07:19:08;78121.59;;;-147.06;95.69
54453;BME280;40363;52.270;10.546;2023-12-04T07:21:35;78117.47;;;-147.06;96.49
54453;BME280;40363;52.270;10.546;2023-12-04T07:24:02;78109.25;;;-147.06;95.38
54453;BME280;40363;52.270;10.546;2023-12-04T07:26:30;78113.38;;;-147.06;95.10
54453;BME280;40363;52.270;10.546;2023-12-04T07:28:57;78133.94;;;-147.06;94.93
54453;BME280;40363;52.270;10.546;2023-12-04T07:31:25;78117.47;;;-147.06;94.98
54453;BME280;40363;52.270;10.546;2023-12-04T07:33:52;78117.47;;;-147.06;94.57
54453;BME280;40363;52.270;10.546;2023-12-04T07:36:18;78129.81;;;-147.06;94.74
54453;BME280;40363;52.270;10.546;2023-12-04T07:38:45;78125.72;;;-147.06;95.19
54453;BME280;40363;52.270;10.546;2023-12-04T07:41:12;78135.97;;;-147.06;95.23
54453;BME280;40363;52.270;10.546;2023-12-04T07:43:40;78127.75;;;-147.06;94.54
54453;BME280;40363;52.270;10.546;2023-12-04T07:46:09;78125.72;;;-147.06;94.87
54453;BME280;40363;52.270;10.546;2023-12-04T07:48:37;78154.50;;;-147.06;95.48
54453;BME280;40363;52.270;10.546;2023-12-04T07:51:05;78138.03;;;-147.06;95.99
54453;BME280;40363;52.270;10.546;2023-12-04T07:53:32;78140.09;;;-147.06;96.30
54453;BME280;40363;52.270;10.546;2023-12-04T07:56:01;78156.56;;;-147.06;96.42
54453;BME280;40363;52.270;10.546;2023-12-04T07:58:29;78135.97;;;-147.06;96.57
54453;BME280;40363;52.270;10.546;2023-12-04T08:00:56;78142.16;;;-147.06;96.35
54453;BME280;40363;52.270;10.546;2023-12-04T08:03:22;78158.59;;;-147.06;97.09
54453;BME280;40363;52.270;10.546;2023-12-04T08:05:51;78154.50;;;-147.06;97.02
54453;BME280;40363;52.270;10.546;2023-12-04T08:08:17;78129.81;;;-147.06;96.95
54453;BME280;40363;52.270;10.546;2023-12-04T08:10:44;78144.22;;;-147.06;96.86
54453;BME280;40363;52.270;10.546;2023-12-04T08:13:11;78117.47;;;-147.06;96.66
54453;BME280;40363;52.270;10.546;2023-12-04T08:15:37;78113.38;;;-147.06;95.91
54453;BME280;40363;52.270;10.546;2023-12-04T08:18:04;78103.09;;;-147.06;95.81
54453;BME280;40363;52.270;10.546;2023-12-04T08:20:31;78103.09;;;-147.06;96.10
54453;BME280;40363;52.270;10.546;2023-12-04T08:22:59;78092.81;;;-147.06;96.23
54453;BME280;40363;52.270;10.546;2023-12-04T08:25:26;78113.38;;;-147.06;95.76
54453;BME280;40363;52.270;10.546;2023-12-04T08:27:53;78105.16;;;-147.06;95.03
54453;BME280;40363;52.270;10.546;2023-12-04T08:30:19;78115.44;;;-147.06;95.17
54453;BME280;40363;52.270;10.546;2023-12-04T08:32:46;78113.38;;;-147.06;95.65
54453;BME280;40363;52.270;10.546;2023-12-04T08:35:13;78103.09;;;-147.06;96.75
54453;BME280;40363;52.270;10.546;2023-12-04T08:37:40;78082.53;;;-147.06;95.44
54453;BME280;40363;52.270;10.546;2023-12-04T08:40:09;78090.75;;;-147.06;94.79
54453;BME280;40363;52.270;10.546;2023-12-04T08:42:37;78086.63;;;-147.06;95.04
54453;BME280;40363;52.270;10.546;2023-12-04T08:45:05;78092.81;;;-147.06;95.16
54453;BME280;40363;52.270;10.546;2023-12-04T08:47:32;78092.81;;;-147.06;95.56
54453;BME280;40363;52.270;10.546;2023-12-04T08:50:00;78113.38;;;-147.06;95.42
54453;BME280;40363;52.270;10.546;2023-12-04T08:52:27;78084.59;;;-147.06;95.22
54453;BME280;40363;52.270;10.546;2023-12-04T08:54:53;78068.13;;;-147.06;95.28
54453;BME280;40363;52.270;10.546;2023-12-04T08:57:21;78096.91;;;-147.06;94.39
54453;BME280;40363;52.270;10.546;2023-12-04T08:59:48;78088.69;;;-147.06;94.79
54453;BME280;40363;52.270;10.546;2023-12-04T09:02:15;78096.91;;;-147.06;95.59
54453;BME280;40363;52.270;10.546;2023-12-04T09:04:42;78103.09;;;-147.06;95.41
54453;BME280;40363;52.270;10.546;2023-12-04T09:07:08;78086.63;;;-147.06;95.34
54453;BME280;40363;52.270;10.546;2023-12-04T09:09:35;78092.81;;;-147.06;95.42
54453;BME280;40363;52.270;10.546;2023-12-04T09:12:02;78088.69;;;-147.06;95.34
54453;BME280;40363;52.270;10.546;2023-12-04T09:14:30;78074.31;;;-147.06;94.92
54453;BME280;40363;52.270;10.546;2023-12-04T09:16:56;78078.41;;;-147.06;95.97
54453;BME280;40363;52.270;10.546;2023-12-04T09:19:23;78064.03;;;-147.06;96.09
54453;BME280;40363;52.270;10.546;2023-12-04T09:21:49;78057.84;;;-147.06;95.60
54453;BME280;40363;52.270;10.546;2023-12-04T09:24:16;78049.63;;;-147.06;95.44
54453;BME280;40363;52.270;10.546;2023-12-04T09:26:43;78037.28;;;-147.06;94.22
54453;BME280;40363;52.270;10.546;2023-12-04T09:29:11;78024.94;;;-147.06;93.93
54453;BME280;40363;52.270;10.546;2023-12-04T09:31:39;78033.19;;;-147.06;93.46
54453;BME280;40363;52.270;10.546;2023-12-04T09:34:06;78027.00;;;-147.06;92.53
54453;BME280;40363;52.270;10.546;2023-12-04T09:36:33;78033.19;;;-147.06;91.77
54453;BME280;40363;52.270;10.546;2023-12-04T09:39:00;78002.34;;;-147.06;92.24
54453;BME280;40363;52.270;10.546;2023-12-04T09:41:30;78008.50;;;-147.06;90.75
54453;BME280;40363;52.270;10.546;2023-12-04T09:43:58;77985.88;;;-147.06;91.00
54453;BME280;40363;52.270;10.546;2023-12-04T09:46:24;77992.06;;;-147.06;91.30
54453;BME280;40363;52.270;10.546;2023-12-04T09:48:54;77973.56;;;-147.06;92.14
54453;BME280;40363;52.270;10.546;2023-12-04T09:51:22;77965.31;;;-147.06;90.50
54453;BME280;40363;52.270;10.546;2023-12-04T09:53:49;77936.53;;;-147.06;91.32
54453;BME280;40363;52.270;10.546;2023-12-04T09:56:16;77944.75;;;-147.06;90.36
54453;BME280;40363;52.270;10.546;2023-12-04T09:58:43;77940.66;;;-147.06;90.21
54453;BME280;40363;52.270;10.546;2023-12-04T10:01:11;77903.63;;;-147.06;89.99
54453;BME280;40363;52.270;10.546;2023-12-04T10:03:38;77893.34;;;-147.06;89.26
54453;BME280;40363;52.270;10.546;2023-12-04T10:06:08;77864.56;;;-147.06;88.98
54453;BME280;40363;52.270;10.546;2023-12-04T10:08:35;77874.84;;;-147.06;88.26
54453;BME280;40363;52.270;10.546;2023-12-04T10:11:01;77848.13;;;-147.06;88.01
54453;BME280;40363;52.270;10.546;2023-12-04T10:13:28;77821.41;;;-147.06;87.20
54453;BME280;40363;52.270;10.546;2023-12-04T10:15:55;77807.00;;;-147.06;88.55
54453;BME280;40363;52.270;10.546;2023-12-04T10:18:25;77786.44;;;-147.06;88.01
54453;BME280;40363;52.270;10.546;2023-12-04T10:20:53;77792.63;;;-147.06;86.95
54453;BME280;40363;52.270;10.546;2023-12-04T10:23:22;77761.78;;;-147.06;87.75
54453;BME280;40363;52.270;10.546;2023-12-04T10:25:49;77807.00;;;-147.06;85.10
54453;BME280;40363;52.270;10.546;2023-12-04T10:28:16;77792.63;;;-147.06;85.59
54453;BME280;40363;52.270;10.546;2023-12-04T10:30:43;77774.09;;;-147.06;85.42
54453;BME280;40363;52.270;10.546;2023-12-04T10:33:10;77817.28;;;-147.06;86.76
54453;BME280;40363;52.270;10.546;2023-12-04T10:35:37;77796.72;;;-147.06;86.80
54453;BME280;40363;52.270;10.546;2023-12-04T10:38:05;77782.34;;;-147.06;85.94
54453;BME280;40363;52.270;10.546;2023-12-04T10:40:35;77813.16;;;-147.06;85.62
54453;BME280;40363;52.270;10.546;2023-12-04T10:43:14;77813.16;;;-147.06;86.50
54453;BME280;40363;52.270;10.546;2023-12-04T10:45:42;77813.16;;;-147.06;85.97
54453;BME280;40363;52.270;10.546;2023-12-04T10:48:12;77807.00;;;-147.06;85.77
54453;BME280;40363;52.270;10.546;2023-12-04T10:50:44;77784.38;;;-147.06;86.19
54453;BME280;40363;52.270;10.546;2023-12-04T10:53:11;77831.69;;;-147.06;85.11
54453;BME280;40363;52.270;10.546;2023-12-04T10:55:40;77786.44;;;-147.06;86.17
54453;BME280;40363;52.270;10.546;2023-12-04T10:58:09;77815.22;;;-147.06;85.51
54453;BME280;40363;52.270;10.546;2023-12-04T11:00:38;77815.22;;;-147.06;86.15
54453;BME280;40363;52.270;10.546;2023-12-04T11:03:08;77815.22;;;-147.06;85.42
54453;BME280;40363;52.270;10.546;2023-12-04T11:05:37;77815.22;;;-147.06;85.89
54453;BME280;40363;52.270;10.546;2023-12-04T11:08:05;77815.22;;;-147.06;84.91
54453;BME280;40363;52.270;10.546;2023-12-04T11:10:33;77792.63;;;-147.06;85.74
54453;BME280;40363;52.270;10.546;2023-12-04T11:13:06;77763.81;;;-147.06;84.80
54453;BME280;40363;52.270;10.546;2023-12-04T11:15:38;77784.38;;;-147.06;82.61
54453;BME280;40363;52.270;10.546;2023-12-04T11:18:06;77788.50;;;-147.06;83.51
54453;BME280;40363;52.270;10.546;2023-12-04T11:20:36;77790.56;;;-147.06;82.72
54453;BME280;40363;52.270;10.546;2023-12-04T11:23:06;77782.34;;;-147.06;83.21
54453;BME280;40363;52.270;10.546;2023-12-04T11:25:34;77747.38;;;-147.06;84.02
54453;BME280;40363;52.270;10.546;2023-12-04T11:28:05;77804.94;;;-147.06;82.60
54453;BME280;40363;52.270;10.546;2023-12-04T11:30:32;77809.06;;;-147.06;82.67
54453;BME280;40363;52.270;10.546;2023-12-04T11:33:00;77767.94;;;-147.06;82.98
54453;BME280;40363;52.270;10.546;2023-12-04T11:35:27;77792.63;;;-147.06;83.51
54453;BME280;40363;52.270;10.546;2023-12-04T11:37:54;77772.06;;;-147.06;84.11
54453;BME280;40363;52.270;10.546;2023-12-04T11:40:21;77751.50;;;-147.06;83.22
54453;BME280;40363;52.270;10.546;2023-12-04T11:42:48;77761.78;;;-147.06;83.74
54453;BME280;40363;52.270;10.546;2023-12-04T11:45:19;77745.31;;;-147.06;84.39
54453;BME280;40363;52.270;10.546;2023-12-04T11:47:49;77765.88;;;-147.06;82.69
54453;BME280;40363;52.270;10.546;2023-12-04T11:50:18;77755.59;;;-147.06;84.02
54453;BME280;40363;52.270;10.546;2023-12-04T11:53:13;77743.25;;;-147.06;83.39
54453;BME280;40363;52.270;10.546;2023-12-04T11:56:12;77733.00;;;-147.06;84.70
54453;BME280;40363;52.270;10.546;2023-12-04T12:01:23;77735.03;;;-147.06;84.61
54453;BME280;40363;52.270;10.546;2023-12-04T12:03:52;77720.66;;;-147.06;84.89
54453;BME280;40363;52.270;10.546;2023-12-04T12:06:18;77722.72;;;-147.06;84.07
54453;BME280;40363;52.270;10.546;2023-12-04T12:08:46;77687.75;;;-147.06;84.88
54453;BME280;40363;52.270;10.546;2023-12-04T12:11:13;77693.94;;;-147.06;85.21
54453;BME280;40363;52.270;10.546;2023-12-04T12:13:40;77702.16;;;-147.06;83.34
54453;BME280;40363;52.270;10.546;2023-12-04T12:16:08;77665.13;;;-147.06;87.29
54453;BME280;40363;52.270;10.546;2023-12-04T12:18:37;77679.53;;;-147.06;84.40
54453;BME280;40363;52.270;10.546;2023-12-04T12:21:05;77669.25;;;-147.06;84.67
54453;BME280;40363;52.270;10.546;2023-12-04T12:23:33;77663.09;;;-147.06;84.47
54453;BME280;40363;52.270;10.546;2023-12-04T12:26:00;77691.88;;;-147.06;82.95
54453;BME280;40363;52.270;10.546;2023-12-04T12:28:28;77677.47;;;-147.06;85.13
54453;BME280;40363;52.270;10.546;2023-12-04T12:30:55;77673.38;;;-147.06;84.12